sensor_id;sensor_type;location;lat;lon;timestamp;P1;durP1;ratioP1;P2;durP2;ratioP2
3207;SDS011;1616;52.394;9.756;2023-05-10T00:01:23;2.60;;;2.40;;
3207;SDS011;1616;52.394;9.756;2023-05-10T00:03:48;2.10;;;1.90;;
3207;SDS011;1616;52.394;9.756;2023-05-10T00:06:14;3.97;;;2.20;;
3207;SDS011;1616;52.394;9.756;2023-05-10T00:08:40;4.87;;;2.27;;
3207;SDS011;1616;52.394;9.756;2023-05-10T00:11:06;7.87;;;2.57;;
3207;SDS011;1616;52.394;9.756;2023-05-10T00:13:31;2.40;;;2.20;;
3207;SDS011;1616;52.394;9.756;2023-05-10T00:15:57;2.67;;;2.47;;
3207;SDS011;1616;52.394;9.756;2023-05-10T00:18:23;4.27;;;1.90;;
3207;SDS011;1616;52.394;9.756;2023-05-10T00:20:49;2.90;;;1.90;;
3207;SDS011;1616;52.394;9.756;2023-05-10T00:23:15;4.53;;;2.20;;
3207;SDS011;1616;52.394;9.756;2023-05-10T00:25:41;2.80;;;2.50;;
3207;SDS011;1616;52.394;9.756;2023-05-10T00:28:07;2.80;;;2.60;;
3207;SDS011;1616;52.394;9.756;2023-05-10T00:30:32;2.80;;;1.80;;
3207;SDS011;1616;52.394;9.756;2023-05-10T00:32:58;4.40;;;2.30;;
3207;SDS011;1616;52.394;9.756;2023-05-10T00:35:23;2.87;;;2.20;;
3207;SDS011;1616;52.394;9.756;2023-05-10T00:37:49;3.83;;;2.27;;
3207;SDS011;1616;52.394;9.756;2023-05-10T00:40:15;14.60;;;2.17;;
3207;SDS011;1616;52.394;9.756;2023-05-10T00:42:41;2.37;;;2.17;;
3207;SDS011;1616;52.394;9.756;2023-05-10T00:45:07;8.10;;;2.60;;
3207;SDS011;1616;52.394;9.756;2023-05-10T00:47:33;2.17;;;2.07;;
3207;SDS011;1616;52.394;9.756;2023-05-10T00:49:59;2.63;;;2.43;;
3207;SDS011;1616;52.394;9.756;2023-05-10T00:52:27;4.13;;;2.33;;
3207;SDS011;1616;52.394;9.756;2023-05-10T00:54:54;6.77;;;2.73;;
3207;SDS011;1616;52.394;9.756;2023-05-10T00:57:20;3.07;;;2.60;;
3207;SDS011;1616;52.394;9.756;2023-05-10T00:59:46;2.83;;;2.10;;
3207;SDS011;1616;52.394;9.756;2023-05-10T01:02:12;2.93;;;2.70;;
3207;SDS011;1616;52.394;9.756;2023-05-10T01:04:38;6.13;;;1.90;;
3207;SDS011;1616;52.394;9.756;2023-05-10T01:07:05;2.83;;;2.60;;
3207;SDS011;1616;52.394;9.756;2023-05-10T01:09:31;3.30;;;2.63;;
3207;SDS011;1616;52.394;9.756;2023-05-10T01:11:58;3.87;;;2.40;;
3207;SDS011;1616;52.394;9.756;2023-05-10T01:14:25;7.33;;;2.80;;
3207;SDS011;1616;52.394;9.756;2023-05-10T01:16:51;2.67;;;2.47;;
3207;SDS011;1616;52.394;9.756;2023-05-10T01:19:25;3.50;;;2.20;;
3207;SDS011;1616;52.394;9.756;2023-05-10T01:22:05;2.40;;;2.20;;
3207;SDS011;1616;52.394;9.756;2023-05-10T01:24:46;2.60;;;2.40;;
3207;SDS011;1616;52.394;9.756;2023-05-10T01:27:43;2.90;;;2.70;;
3207;SDS011;1616;52.394;9.756;2023-05-10T01:33:38;4.53;;;2.53;;
3207;SDS011;1616;52.394;9.756;2023-05-10T01:41:39;2.87;;;2.67;;
3207;SDS011;1616;52.394;9.756;2023-05-10T01:47:17;8.60;;;3.80;;
3207;SDS011;1616;52.394;9.756;2023-05-10T01:49:50;3.80;;;3.13;;
3207;SDS011;1616;52.394;9.756;2023-05-10T01:52:19;3.97;;;3.70;;
3207;SDS011;1616;52.394;9.756;2023-05-10T01:55:02;10.90;;;3.40;;
3207;SDS011;1616;52.394;9.756;2023-05-10T01:57:32;3.33;;;3.10;;
3207;SDS011;1616;52.394;9.756;2023-05-10T02:00:00;3.70;;;3.40;;
3207;SDS011;1616;52.394;9.756;2023-05-10T02:02:28;4.60;;;3.87;;
3207;SDS011;1616;52.394;9.756;2023-05-10T02:04:58;3.40;;;3.20;;
3207;SDS011;1616;52.394;9.756;2023-05-10T02:07:24;6.90;;;4.53;;
3207;SDS011;1616;52.394;9.756;2023-05-10T02:09:53;3.60;;;3.40;;
3207;SDS011;1616;52.394;9.756;2023-05-10T02:12:19;4.60;;;4.30;;
3207;SDS011;1616;52.394;9.756;2023-05-10T02:14:47;5.07;;;3.30;;
3207;SDS011;1616;52.394;9.756;2023-05-10T02:17:13;3.77;;;3.43;;
3207;SDS011;1616;52.394;9.756;2023-05-10T02:19:40;3.80;;;3.60;;
3207;SDS011;1616;52.394;9.756;2023-05-10T02:22:08;6.53;;;4.20;;
3207;SDS011;1616;52.394;9.756;2023-05-10T02:24:35;3.90;;;3.60;;
3207;SDS011;1616;52.394;9.756;2023-05-10T02:27:02;8.70;;;4.37;;
3207;SDS011;1616;52.394;9.756;2023-05-10T02:29:29;3.53;;;2.97;;
3207;SDS011;1616;52.394;9.756;2023-05-10T02:31:56;4.10;;;3.80;;
3207;SDS011;1616;52.394;9.756;2023-05-10T02:34:23;8.60;;;3.80;;
3207;SDS011;1616;52.394;9.756;2023-05-10T02:36:51;5.47;;;3.90;;
3207;SDS011;1616;52.394;9.756;2023-05-10T02:39:18;3.70;;;3.50;;
3207;SDS011;1616;52.394;9.756;2023-05-10T02:41:45;5.60;;;3.60;;
3207;SDS011;1616;52.394;9.756;2023-05-10T02:44:14;3.80;;;3.37;;
3207;SDS011;1616;52.394;9.756;2023-05-10T02:46:42;5.03;;;4.30;;
3207;SDS011;1616;52.394;9.756;2023-05-10T02:49:08;4.53;;;3.77;;
3207;SDS011;1616;52.394;9.756;2023-05-10T02:51:35;6.87;;;4.10;;
3207;SDS011;1616;52.394;9.756;2023-05-10T02:54:10;6.90;;;4.73;;
3207;SDS011;1616;52.394;9.756;2023-05-10T02:56:42;5.93;;;5.53;;
3207;SDS011;1616;52.394;9.756;2023-05-10T02:59:12;4.83;;;4.53;;
3207;SDS011;1616;52.394;9.756;2023-05-10T03:01:38;6.53;;;4.80;;
3207;SDS011;1616;52.394;9.756;2023-05-10T03:04:03;6.03;;;5.47;;
3207;SDS011;1616;52.394;9.756;2023-05-10T03:06:29;5.60;;;5.20;;
3207;SDS011;1616;52.394;9.756;2023-05-10T03:08:55;5.37;;;4.63;;
3207;SDS011;1616;52.394;9.756;2023-05-10T03:11:30;4.87;;;4.20;;
3207;SDS011;1616;52.394;9.756;2023-05-10T03:16:46;6.80;;;4.67;;
3207;SDS011;1616;52.394;9.756;2023-05-10T03:19:19;4.97;;;4.67;;
3207;SDS011;1616;52.394;9.756;2023-05-10T03:22:08;4.53;;;4.20;;
3207;SDS011;1616;52.394;9.756;2023-05-10T03:24:36;5.13;;;4.83;;
3207;SDS011;1616;52.394;9.756;2023-05-10T03:27:04;5.63;;;4.83;;
3207;SDS011;1616;52.394;9.756;2023-05-10T03:29:31;5.60;;;5.20;;
3207;SDS011;1616;52.394;9.756;2023-05-10T03:31:58;6.67;;;6.20;;
3207;SDS011;1616;52.394;9.756;2023-05-10T03:34:25;4.80;;;4.20;;
3207;SDS011;1616;52.394;9.756;2023-05-10T03:36:50;8.17;;;5.43;;
3207;SDS011;1616;52.394;9.756;2023-05-10T03:39:16;6.33;;;5.80;;
3207;SDS011;1616;52.394;9.756;2023-05-10T03:41:42;5.40;;;5.10;;
3207;SDS011;1616;52.394;9.756;2023-05-10T03:44:08;6.30;;;5.70;;
3207;SDS011;1616;52.394;9.756;2023-05-10T03:46:33;5.83;;;5.43;;
3207;SDS011;1616;52.394;9.756;2023-05-10T03:48:59;6.53;;;6.07;;
3207;SDS011;1616;52.394;9.756;2023-05-10T03:51:24;8.70;;;7.03;;
3207;SDS011;1616;52.394;9.756;2023-05-10T03:53:53;7.60;;;6.07;;
3207;SDS011;1616;52.394;9.756;2023-05-10T03:56:20;6.63;;;6.10;;
3207;SDS011;1616;52.394;9.756;2023-05-10T03:58:45;5.57;;;5.33;;
3207;SDS011;1616;52.394;9.756;2023-05-10T04:01:11;5.80;;;5.50;;
3207;SDS011;1616;52.394;9.756;2023-05-10T04:03:37;4.60;;;4.40;;
3207;SDS011;1616;52.394;9.756;2023-05-10T04:06:03;6.37;;;5.90;;
3207;SDS011;1616;52.394;9.756;2023-05-10T04:08:29;5.23;;;4.93;;
3207;SDS011;1616;52.394;9.756;2023-05-10T04:11:05;4.03;;;3.73;;
3207;SDS011;1616;52.394;9.756;2023-05-10T04:13:32;5.90;;;5.50;;
3207;SDS011;1616;52.394;9.756;2023-05-10T04:15:58;9.37;;;3.90;;
3207;SDS011;1616;52.394;9.756;2023-05-10T04:18:24;3.90;;;3.50;;
3207;SDS011;1616;52.394;9.756;2023-05-10T04:20:49;5.07;;;4.67;;
3207;SDS011;1616;52.394;9.756;2023-05-10T04:23:15;10.50;;;4.20;;
3207;SDS011;1616;52.394;9.756;2023-05-10T04:25:42;7.80;;;5.57;;
3207;SDS011;1616;52.394;9.756;2023-05-10T04:28:08;13.13;;;5.17;;
3207;SDS011;1616;52.394;9.756;2023-05-10T04:30:33;6.27;;;5.03;;
3207;SDS011;1616;52.394;9.756;2023-05-10T04:33:00;9.00;;;4.27;;
3207;SDS011;1616;52.394;9.756;2023-05-10T04:35:27;6.93;;;4.93;;
3207;SDS011;1616;52.394;9.756;2023-05-10T04:37:53;7.33;;;6.80;;
3207;SDS011;1616;52.394;9.756;2023-05-10T04:40:18;7.50;;;7.00;;
3207;SDS011;1616;52.394;9.756;2023-05-10T04:42:45;7.40;;;6.77;;
3207;SDS011;1616;52.394;9.756;2023-05-10T04:45:11;7.37;;;6.87;;
3207;SDS011;1616;52.394;9.756;2023-05-10T04:47:37;6.50;;;6.00;;
3207;SDS011;1616;52.394;9.756;2023-05-10T04:50:03;6.53;;;6.20;;
3207;SDS011;1616;52.394;9.756;2023-05-10T04:52:29;7.03;;;6.53;;
3207;SDS011;1616;52.394;9.756;2023-05-10T04:54:54;8.27;;;7.33;;
3207;SDS011;1616;52.394;9.756;2023-05-10T04:57:33;8.30;;;7.90;;
3207;SDS011;1616;52.394;9.756;2023-05-10T04:59:59;7.67;;;6.97;;
3207;SDS011;1616;52.394;9.756;2023-05-10T05:02:25;7.87;;;7.13;;
3207;SDS011;1616;52.394;9.756;2023-05-10T05:04:51;8.57;;;7.87;;
3207;SDS011;1616;52.394;9.756;2023-05-10T05:07:16;8.77;;;8.00;;
3207;SDS011;1616;52.394;9.756;2023-05-10T05:09:42;8.13;;;7.00;;
3207;SDS011;1616;52.394;9.756;2023-05-10T05:12:07;8.40;;;7.80;;
3207;SDS011;1616;52.394;9.756;2023-05-10T05:14:33;10.77;;;8.90;;
3207;SDS011;1616;52.394;9.756;2023-05-10T05:16:58;10.27;;;9.37;;
3207;SDS011;1616;52.394;9.756;2023-05-10T05:19:24;9.80;;;8.90;;
3207;SDS011;1616;52.394;9.756;2023-05-10T05:21:50;13.83;;;9.10;;
3207;SDS011;1616;52.394;9.756;2023-05-10T05:24:16;11.00;;;9.90;;
3207;SDS011;1616;52.394;9.756;2023-05-10T05:26:41;10.07;;;9.23;;
3207;SDS011;1616;52.394;9.756;2023-05-10T05:29:07;13.63;;;11.23;;
3207;SDS011;1616;52.394;9.756;2023-05-10T05:31:32;12.60;;;10.07;;
3207;SDS011;1616;52.394;9.756;2023-05-10T05:33:58;9.43;;;8.50;;
3207;SDS011;1616;52.394;9.756;2023-05-10T05:36:24;9.87;;;9.10;;
3207;SDS011;1616;52.394;9.756;2023-05-10T05:38:49;13.50;;;11.07;;
3207;SDS011;1616;52.394;9.756;2023-05-10T05:41:15;11.07;;;10.03;;
3207;SDS011;1616;52.394;9.756;2023-05-10T05:43:41;14.20;;;10.50;;
3207;SDS011;1616;52.394;9.756;2023-05-10T05:46:06;11.60;;;10.60;;
3207;SDS011;1616;52.394;9.756;2023-05-10T05:48:32;11.23;;;10.43;;
3207;SDS011;1616;52.394;9.756;2023-05-10T05:50:57;11.90;;;10.70;;
3207;SDS011;1616;52.394;9.756;2023-05-10T05:53:23;11.53;;;10.50;;
3207;SDS011;1616;52.394;9.756;2023-05-10T05:55:52;17.10;;;9.73;;
3207;SDS011;1616;52.394;9.756;2023-05-10T05:58:21;10.47;;;9.47;;
3207;SDS011;1616;52.394;9.756;2023-05-10T06:00:47;9.80;;;8.93;;
3207;SDS011;1616;52.394;9.756;2023-05-10T06:03:12;9.73;;;8.90;;
3207;SDS011;1616;52.394;9.756;2023-05-10T06:05:38;9.30;;;8.60;;
3207;SDS011;1616;52.394;9.756;2023-05-10T06:08:04;7.87;;;7.20;;
3207;SDS011;1616;52.394;9.756;2023-05-10T06:10:29;23.57;;;9.00;;
3207;SDS011;1616;52.394;9.756;2023-05-10T06:12:55;10.27;;;9.47;;
3207;SDS011;1616;52.394;9.756;2023-05-10T06:15:21;11.20;;;8.33;;
3207;SDS011;1616;52.394;9.756;2023-05-10T06:17:47;8.67;;;7.97;;
3207;SDS011;1616;52.394;9.756;2023-05-10T06:20:14;9.57;;;8.73;;
3207;SDS011;1616;52.394;9.756;2023-05-10T06:22:41;9.80;;;8.93;;
3207;SDS011;1616;52.394;9.756;2023-05-10T06:25:07;10.43;;;9.30;;
3207;SDS011;1616;52.394;9.756;2023-05-10T06:27:33;9.20;;;8.43;;
3207;SDS011;1616;52.394;9.756;2023-05-10T06:29:59;9.30;;;8.60;;
3207;SDS011;1616;52.394;9.756;2023-05-10T06:32:24;9.70;;;8.30;;
3207;SDS011;1616;52.394;9.756;2023-05-10T06:34:50;23.37;;;10.43;;
3207;SDS011;1616;52.394;9.756;2023-05-10T06:37:16;11.33;;;10.20;;
3207;SDS011;1616;52.394;9.756;2023-05-10T06:39:41;10.50;;;9.23;;
3207;SDS011;1616;52.394;9.756;2023-05-10T06:42:07;10.70;;;9.70;;
3207;SDS011;1616;52.394;9.756;2023-05-10T06:44:33;10.27;;;9.53;;
3207;SDS011;1616;52.394;9.756;2023-05-10T06:46:58;10.47;;;9.40;;
3207;SDS011;1616;52.394;9.756;2023-05-10T06:49:24;12.40;;;11.10;;
3207;SDS011;1616;52.394;9.756;2023-05-10T06:51:49;12.40;;;11.13;;
3207;SDS011;1616;52.394;9.756;2023-05-10T06:54:15;13.70;;;11.73;;
3207;SDS011;1616;52.394;9.756;2023-05-10T06:56:40;17.90;;;11.43;;
3207;SDS011;1616;52.394;9.756;2023-05-10T06:59:06;13.90;;;11.47;;
3207;SDS011;1616;52.394;9.756;2023-05-10T07:01:32;13.53;;;12.13;;
3207;SDS011;1616;52.394;9.756;2023-05-10T07:03:58;22.87;;;11.47;;
3207;SDS011;1616;52.394;9.756;2023-05-10T07:06:23;14.40;;;11.57;;
3207;SDS011;1616;52.394;9.756;2023-05-10T07:08:49;11.57;;;10.67;;
3207;SDS011;1616;52.394;9.756;2023-05-10T07:11:14;17.47;;;10.40;;
3207;SDS011;1616;52.394;9.756;2023-05-10T07:13:40;11.77;;;10.67;;
3207;SDS011;1616;52.394;9.756;2023-05-10T07:16:09;11.10;;;10.23;;
3207;SDS011;1616;52.394;9.756;2023-05-10T07:18:35;11.30;;;10.33;;
3207;SDS011;1616;52.394;9.756;2023-05-10T07:21:00;12.47;;;11.13;;
3207;SDS011;1616;52.394;9.756;2023-05-10T07:23:26;10.73;;;9.77;;
3207;SDS011;1616;52.394;9.756;2023-05-10T07:25:52;11.30;;;10.40;;
3207;SDS011;1616;52.394;9.756;2023-05-10T07:28:18;11.30;;;10.20;;
3207;SDS011;1616;52.394;9.756;2023-05-10T07:30:44;10.33;;;9.63;;
3207;SDS011;1616;52.394;9.756;2023-05-10T07:33:12;10.80;;;9.53;;
3207;SDS011;1616;52.394;9.756;2023-05-10T07:35:38;15.83;;;8.67;;
3207;SDS011;1616;52.394;9.756;2023-05-10T07:38:04;10.70;;;10.10;;
3207;SDS011;1616;52.394;9.756;2023-05-10T07:40:30;11.47;;;10.27;;
3207;SDS011;1616;52.394;9.756;2023-05-10T07:42:55;12.00;;;10.80;;
3207;SDS011;1616;52.394;9.756;2023-05-10T07:45:21;10.70;;;9.77;;
3207;SDS011;1616;52.394;9.756;2023-05-10T07:47:47;10.20;;;9.40;;
3207;SDS011;1616;52.394;9.756;2023-05-10T07:50:13;10.53;;;9.73;;
3207;SDS011;1616;52.394;9.756;2023-05-10T07:52:39;9.43;;;8.63;;
3207;SDS011;1616;52.394;9.756;2023-05-10T07:55:06;8.60;;;7.90;;
3207;SDS011;1616;52.394;9.756;2023-05-10T07:57:33;10.27;;;9.37;;
3207;SDS011;1616;52.394;9.756;2023-05-10T07:59:59;9.40;;;8.73;;
3207;SDS011;1616;52.394;9.756;2023-05-10T08:02:25;10.07;;;8.90;;
3207;SDS011;1616;52.394;9.756;2023-05-10T08:04:50;8.83;;;8.33;;
3207;SDS011;1616;52.394;9.756;2023-05-10T08:07:16;10.13;;;8.80;;
3207;SDS011;1616;52.394;9.756;2023-05-10T08:09:42;7.50;;;6.90;;
3207;SDS011;1616;52.394;9.756;2023-05-10T08:12:08;9.83;;;8.90;;
3207;SDS011;1616;52.394;9.756;2023-05-10T08:14:34;6.30;;;6.00;;
3207;SDS011;1616;52.394;9.756;2023-05-10T08:17:02;5.90;;;5.60;;
3207;SDS011;1616;52.394;9.756;2023-05-10T08:19:28;8.13;;;4.73;;
3207;SDS011;1616;52.394;9.756;2023-05-10T08:21:53;4.67;;;4.20;;
3207;SDS011;1616;52.394;9.756;2023-05-10T08:24:20;4.70;;;4.40;;
3207;SDS011;1616;52.394;9.756;2023-05-10T08:26:47;3.20;;;3.00;;
3207;SDS011;1616;52.394;9.756;2023-05-10T08:29:13;3.37;;;3.17;;
3207;SDS011;1616;52.394;9.756;2023-05-10T08:31:39;2.40;;;2.23;;
3207;SDS011;1616;52.394;9.756;2023-05-10T08:34:04;3.97;;;2.73;;
3207;SDS011;1616;52.394;9.756;2023-05-10T08:36:30;2.50;;;2.40;;
3207;SDS011;1616;52.394;9.756;2023-05-10T08:38:57;2.03;;;1.67;;
3207;SDS011;1616;52.394;9.756;2023-05-10T08:41:23;1.83;;;1.73;;
3207;SDS011;1616;52.394;9.756;2023-05-10T08:43:51;1.57;;;1.47;;
3207;SDS011;1616;52.394;9.756;2023-05-10T08:46:18;1.90;;;1.80;;
3207;SDS011;1616;52.394;9.756;2023-05-10T08:48:46;1.83;;;1.73;;
3207;SDS011;1616;52.394;9.756;2023-05-10T08:51:13;3.60;;;1.50;;
3207;SDS011;1616;52.394;9.756;2023-05-10T08:53:42;2.03;;;1.40;;
3207;SDS011;1616;52.394;9.756;2023-05-10T08:56:08;1.70;;;1.60;;
3207;SDS011;1616;52.394;9.756;2023-05-10T08:58:34;1.83;;;1.73;;
3207;SDS011;1616;52.394;9.756;2023-05-10T09:00:59;1.77;;;1.67;;
3207;SDS011;1616;52.394;9.756;2023-05-10T09:03:26;2.30;;;2.20;;
3207;SDS011;1616;52.394;9.756;2023-05-10T09:05:51;2.27;;;1.80;;
3207;SDS011;1616;52.394;9.756;2023-05-10T09:08:17;1.80;;;1.70;;
3207;SDS011;1616;52.394;9.756;2023-05-10T09:10:43;1.90;;;1.80;;
3207;SDS011;1616;52.394;9.756;2023-05-10T09:13:12;2.87;;;2.07;;
3207;SDS011;1616;52.394;9.756;2023-05-10T09:15:39;2.10;;;2.00;;
3207;SDS011;1616;52.394;9.756;2023-05-10T09:18:05;2.30;;;2.10;;
3207;SDS011;1616;52.394;9.756;2023-05-10T09:20:30;2.37;;;2.17;;
3207;SDS011;1616;52.394;9.756;2023-05-10T09:22:56;2.93;;;2.00;;
3207;SDS011;1616;52.394;9.756;2023-05-10T09:25:22;3.00;;;2.33;;
3207;SDS011;1616;52.394;9.756;2023-05-10T09:27:48;3.93;;;2.50;;
3207;SDS011;1616;52.394;9.756;2023-05-10T09:30:34;2.20;;;2.10;;
3207;SDS011;1616;52.394;9.756;2023-05-10T09:33:00;3.00;;;2.77;;
3207;SDS011;1616;52.394;9.756;2023-05-10T09:35:27;2.73;;;2.60;;
3207;SDS011;1616;52.394;9.756;2023-05-10T09:37:55;2.77;;;2.37;;
3207;SDS011;1616;52.394;9.756;2023-05-10T09:40:22;2.83;;;2.73;;
3207;SDS011;1616;52.394;9.756;2023-05-10T09:43:05;2.67;;;2.07;;
3207;SDS011;1616;52.394;9.756;2023-05-10T09:45:32;2.07;;;1.87;;
3207;SDS011;1616;52.394;9.756;2023-05-10T09:47:59;6.30;;;1.80;;
3207;SDS011;1616;52.394;9.756;2023-05-10T09:50:26;4.67;;;2.10;;
3207;SDS011;1616;52.394;9.756;2023-05-10T09:55:25;2.20;;;2.10;;
3207;SDS011;1616;52.394;9.756;2023-05-10T09:58:01;2.30;;;2.20;;
3207;SDS011;1616;52.394;9.756;2023-05-10T10:00:27;2.33;;;2.23;;
3207;SDS011;1616;52.394;9.756;2023-05-10T10:02:59;2.20;;;2.00;;
3207;SDS011;1616;52.394;9.756;2023-05-10T10:05:32;2.97;;;2.77;;
3207;SDS011;1616;52.394;9.756;2023-05-10T10:07:59;2.90;;;2.37;;
3207;SDS011;1616;52.394;9.756;2023-05-10T10:10:26;2.73;;;2.43;;
3207;SDS011;1616;52.394;9.756;2023-05-10T10:12:53;4.07;;;3.77;;
3207;SDS011;1616;52.394;9.756;2023-05-10T10:15:20;4.90;;;2.60;;
3207;SDS011;1616;52.394;9.756;2023-05-10T10:17:46;2.07;;;1.90;;
3207;SDS011;1616;52.394;9.756;2023-05-10T10:20:13;2.40;;;2.30;;
3207;SDS011;1616;52.394;9.756;2023-05-10T10:22:39;2.70;;;2.03;;
3207;SDS011;1616;52.394;9.756;2023-05-10T10:25:05;2.00;;;1.90;;
3207;SDS011;1616;52.394;9.756;2023-05-10T10:30:33;2.50;;;2.30;;
3207;SDS011;1616;52.394;9.756;2023-05-10T10:33:13;6.50;;;3.07;;
3207;SDS011;1616;52.394;9.756;2023-05-10T10:35:59;3.13;;;2.40;;
3207;SDS011;1616;52.394;9.756;2023-05-10T10:38:35;3.30;;;2.30;;
3207;SDS011;1616;52.394;9.756;2023-05-10T10:41:06;2.73;;;2.53;;
3207;SDS011;1616;52.394;9.756;2023-05-10T10:43:35;2.93;;;2.03;;
3207;SDS011;1616;52.394;9.756;2023-05-10T10:46:13;2.97;;;1.83;;
3207;SDS011;1616;52.394;9.756;2023-05-10T10:48:49;2.30;;;2.10;;
3207;SDS011;1616;52.394;9.756;2023-05-10T10:51:37;2.50;;;2.30;;
3207;SDS011;1616;52.394;9.756;2023-05-10T10:54:09;2.43;;;2.23;;
3207;SDS011;1616;52.394;9.756;2023-05-10T10:56:35;2.43;;;2.23;;
3207;SDS011;1616;52.394;9.756;2023-05-10T10:59:01;2.30;;;2.10;;
3207;SDS011;1616;52.394;9.756;2023-05-10T11:01:32;2.63;;;2.00;;
3207;SDS011;1616;52.394;9.756;2023-05-10T11:06:31;2.03;;;1.83;;
3207;SDS011;1616;52.394;9.756;2023-05-10T11:08:58;2.47;;;2.27;;
3207;SDS011;1616;52.394;9.756;2023-05-10T11:11:25;2.63;;;1.80;;
3207;SDS011;1616;52.394;9.756;2023-05-10T11:13:50;2.23;;;2.03;;
3207;SDS011;1616;52.394;9.756;2023-05-10T11:16:19;3.27;;;2.37;;
3207;SDS011;1616;52.394;9.756;2023-05-10T11:19:04;2.10;;;2.00;;
3207;SDS011;1616;52.394;9.756;2023-05-10T11:21:34;2.23;;;2.03;;
3207;SDS011;1616;52.394;9.756;2023-05-10T11:24:16;3.33;;;2.13;;
3207;SDS011;1616;52.394;9.756;2023-05-10T11:26:52;2.63;;;1.57;;
3207;SDS011;1616;52.394;9.756;2023-05-10T11:29:18;1.90;;;1.80;;
3207;SDS011;1616;52.394;9.756;2023-05-10T11:31:45;2.53;;;1.57;;
3207;SDS011;1616;52.394;9.756;2023-05-10T11:34:12;3.60;;;2.40;;
3207;SDS011;1616;52.394;9.756;2023-05-10T11:37:00;2.77;;;1.90;;
3207;SDS011;1616;52.394;9.756;2023-05-10T11:39:29;1.83;;;1.73;;
3207;SDS011;1616;52.394;9.756;2023-05-10T11:41:56;2.03;;;1.70;;
3207;SDS011;1616;52.394;9.756;2023-05-10T11:44:23;2.40;;;1.83;;
3207;SDS011;1616;52.394;9.756;2023-05-10T11:46:49;3.33;;;2.17;;
3207;SDS011;1616;52.394;9.756;2023-05-10T11:49:15;2.17;;;2.07;;
3207;SDS011;1616;52.394;9.756;2023-05-10T11:51:40;2.60;;;2.40;;
3207;SDS011;1616;52.394;9.756;2023-05-10T11:54:09;3.10;;;2.30;;
3207;SDS011;1616;52.394;9.756;2023-05-10T11:56:36;1.50;;;1.40;;
3207;SDS011;1616;52.394;9.756;2023-05-10T11:59:03;2.20;;;1.90;;
3207;SDS011;1616;52.394;9.756;2023-05-10T12:01:29;2.00;;;1.80;;
3207;SDS011;1616;52.394;9.756;2023-05-10T12:03:56;2.17;;;2.07;;
3207;SDS011;1616;52.394;9.756;2023-05-10T12:06:28;2.10;;;1.90;;
3207;SDS011;1616;52.394;9.756;2023-05-10T12:08:56;2.20;;;2.00;;
3207;SDS011;1616;52.394;9.756;2023-05-10T12:11:24;2.90;;;2.20;;
3207;SDS011;1616;52.394;9.756;2023-05-10T12:13:51;2.90;;;2.00;;
3207;SDS011;1616;52.394;9.756;2023-05-10T12:16:17;2.60;;;2.03;;
3207;SDS011;1616;52.394;9.756;2023-05-10T12:18:49;2.63;;;1.80;;
3207;SDS011;1616;52.394;9.756;2023-05-10T12:21:21;2.70;;;2.00;;
3207;SDS011;1616;52.394;9.756;2023-05-10T12:23:48;2.43;;;2.00;;
3207;SDS011;1616;52.394;9.756;2023-05-10T12:26:16;2.73;;;2.13;;
3207;SDS011;1616;52.394;9.756;2023-05-10T12:28:42;2.47;;;2.13;;
3207;SDS011;1616;52.394;9.756;2023-05-10T12:31:08;2.20;;;2.10;;
3207;SDS011;1616;52.394;9.756;2023-05-10T12:33:38;2.50;;;2.40;;
3207;SDS011;1616;52.394;9.756;2023-05-10T12:36:07;5.63;;;2.27;;
3207;SDS011;1616;52.394;9.756;2023-05-10T12:38:38;3.00;;;1.90;;
3207;SDS011;1616;52.394;9.756;2023-05-10T12:41:09;2.40;;;2.20;;
3207;SDS011;1616;52.394;9.756;2023-05-10T12:43:36;2.20;;;2.00;;
3207;SDS011;1616;52.394;9.756;2023-05-10T12:46:09;2.40;;;2.20;;
3207;SDS011;1616;52.394;9.756;2023-05-10T12:48:36;1.60;;;1.50;;
3207;SDS011;1616;52.394;9.756;2023-05-10T12:51:03;2.40;;;2.20;;
3207;SDS011;1616;52.394;9.756;2023-05-10T12:53:29;3.50;;;3.30;;
3207;SDS011;1616;52.394;9.756;2023-05-10T12:55:55;3.03;;;2.40;;
3207;SDS011;1616;52.394;9.756;2023-05-10T12:58:22;3.00;;;2.47;;
3207;SDS011;1616;52.394;9.756;2023-05-10T13:00:48;2.70;;;2.20;;
3207;SDS011;1616;52.394;9.756;2023-05-10T13:03:14;2.80;;;2.60;;
3207;SDS011;1616;52.394;9.756;2023-05-10T13:05:40;3.20;;;2.90;;
3207;SDS011;1616;52.394;9.756;2023-05-10T13:08:06;2.50;;;2.33;;
3207;SDS011;1616;52.394;9.756;2023-05-10T13:10:32;3.33;;;3.13;;
3207;SDS011;1616;52.394;9.756;2023-05-10T13:12:58;3.00;;;2.80;;
3207;SDS011;1616;52.394;9.756;2023-05-10T13:15:24;3.30;;;3.10;;
3207;SDS011;1616;52.394;9.756;2023-05-10T13:17:50;3.40;;;3.20;;
3207;SDS011;1616;52.394;9.756;2023-05-10T13:20:16;5.50;;;3.30;;
3207;SDS011;1616;52.394;9.756;2023-05-10T13:22:43;3.00;;;2.80;;
3207;SDS011;1616;52.394;9.756;2023-05-10T13:25:09;5.90;;;3.00;;
3207;SDS011;1616;52.394;9.756;2023-05-10T13:27:36;2.30;;;2.17;;
3207;SDS011;1616;52.394;9.756;2023-05-10T13:30:02;2.33;;;2.13;;
3207;SDS011;1616;52.394;9.756;2023-05-10T13:32:29;3.73;;;2.37;;
3207;SDS011;1616;52.394;9.756;2023-05-10T13:34:55;3.37;;;3.17;;
3207;SDS011;1616;52.394;9.756;2023-05-10T13:37:21;3.57;;;3.20;;
3207;SDS011;1616;52.394;9.756;2023-05-10T13:39:47;3.93;;;3.47;;
3207;SDS011;1616;52.394;9.756;2023-05-10T13:42:13;3.30;;;3.10;;
3207;SDS011;1616;52.394;9.756;2023-05-10T13:44:39;4.07;;;2.97;;
3207;SDS011;1616;52.394;9.756;2023-05-10T13:47:05;4.00;;;2.30;;
3207;SDS011;1616;52.394;9.756;2023-05-10T13:49:31;3.40;;;3.20;;
3207;SDS011;1616;52.394;9.756;2023-05-10T13:51:57;3.43;;;3.23;;
3207;SDS011;1616;52.394;9.756;2023-05-10T13:54:23;2.60;;;2.43;;
3207;SDS011;1616;52.394;9.756;2023-05-10T13:56:49;3.53;;;2.83;;
3207;SDS011;1616;52.394;9.756;2023-05-10T13:59:14;5.13;;;4.37;;
3207;SDS011;1616;52.394;9.756;2023-05-10T14:01:42;5.37;;;5.07;;
3207;SDS011;1616;52.394;9.756;2023-05-10T14:04:08;5.87;;;5.37;;
3207;SDS011;1616;52.394;9.756;2023-05-10T14:06:37;6.20;;;5.60;;
3207;SDS011;1616;52.394;9.756;2023-05-10T14:09:03;5.70;;;5.20;;
3207;SDS011;1616;52.394;9.756;2023-05-10T14:11:28;6.37;;;5.90;;
3207;SDS011;1616;52.394;9.756;2023-05-10T14:13:54;6.47;;;6.07;;
3207;SDS011;1616;52.394;9.756;2023-05-10T14:16:21;6.20;;;5.70;;
3207;SDS011;1616;52.394;9.756;2023-05-10T14:18:47;7.23;;;5.07;;
3207;SDS011;1616;52.394;9.756;2023-05-10T14:21:13;8.00;;;6.07;;
3207;SDS011;1616;52.394;9.756;2023-05-10T14:23:38;7.73;;;7.13;;
3207;SDS011;1616;52.394;9.756;2023-05-10T14:26:04;6.30;;;6.00;;
3207;SDS011;1616;52.394;9.756;2023-05-10T14:28:30;6.87;;;6.37;;
3207;SDS011;1616;52.394;9.756;2023-05-10T14:30:56;7.17;;;6.67;;
3207;SDS011;1616;52.394;9.756;2023-05-10T14:33:21;7.87;;;7.27;;
3207;SDS011;1616;52.394;9.756;2023-05-10T14:35:47;7.13;;;6.50;;
3207;SDS011;1616;52.394;9.756;2023-05-10T14:38:13;10.30;;;9.30;;
3207;SDS011;1616;52.394;9.756;2023-05-10T14:40:40;13.53;;;8.40;;
3207;SDS011;1616;52.394;9.756;2023-05-10T14:43:05;9.40;;;7.23;;
3207;SDS011;1616;52.394;9.756;2023-05-10T14:45:31;9.20;;;8.40;;
3207;SDS011;1616;52.394;9.756;2023-05-10T14:47:57;11.20;;;9.90;;
3207;SDS011;1616;52.394;9.756;2023-05-10T14:50:23;10.37;;;9.37;;
3207;SDS011;1616;52.394;9.756;2023-05-10T14:52:49;11.03;;;8.63;;
3207;SDS011;1616;52.394;9.756;2023-05-10T14:55:15;10.07;;;9.27;;
3207;SDS011;1616;52.394;9.756;2023-05-10T14:57:41;8.30;;;7.50;;
3207;SDS011;1616;52.394;9.756;2023-05-10T15:00:07;10.83;;;9.73;;
3207;SDS011;1616;52.394;9.756;2023-05-10T15:02:33;9.03;;;8.13;;
3207;SDS011;1616;52.394;9.756;2023-05-10T15:04:58;13.47;;;10.33;;
3207;SDS011;1616;52.394;9.756;2023-05-10T15:07:24;9.60;;;8.70;;
3207;SDS011;1616;52.394;9.756;2023-05-10T15:09:50;11.53;;;10.43;;
3207;SDS011;1616;52.394;9.756;2023-05-10T15:12:17;10.17;;;9.33;;
3207;SDS011;1616;52.394;9.756;2023-05-10T15:14:43;11.30;;;9.70;;
3207;SDS011;1616;52.394;9.756;2023-05-10T15:17:09;10.63;;;9.63;;
3207;SDS011;1616;52.394;9.756;2023-05-10T15:19:35;15.00;;;10.10;;
3207;SDS011;1616;52.394;9.756;2023-05-10T15:22:01;10.93;;;10.00;;
3207;SDS011;1616;52.394;9.756;2023-05-10T15:24:27;10.20;;;9.50;;
3207;SDS011;1616;52.394;9.756;2023-05-10T15:26:53;10.23;;;9.03;;
3207;SDS011;1616;52.394;9.756;2023-05-10T15:29:19;13.97;;;9.93;;
3207;SDS011;1616;52.394;9.756;2023-05-10T15:31:45;12.30;;;10.40;;
3207;SDS011;1616;52.394;9.756;2023-05-10T15:34:15;10.30;;;9.40;;